createdAt,value
2023-03-03T00:00:25.309Z,38.50
2023-03-03T00:03:18.483Z,38.90
2023-03-03T00:05:53.247Z,36.10
2023-03-03T00:08:23.574Z,39.50
2023-03-03T00:10:55.937Z,37.60
2023-03-03T00:13:27.565Z,33.80
2023-03-03T00:16:13.558Z,35.80
2023-03-03T00:18:47.692Z,32.40
2023-03-03T00:21:42.301Z,32.20
2023-03-03T00:24:26.173Z,37.10
2023-03-03T00:27:02.307Z,36.10
2023-03-03T00:29:39.746Z,37.20
2023-03-03T00:32:15.484Z,30.60
2023-03-03T00:34:48.158Z,39.10
2023-03-03T00:37:36.224Z,36.10
2023-03-03T00:40:24.422Z,36.50
2023-03-03T00:43:00.154Z,34.10
2023-03-03T00:45:48.461Z,33.80
2023-03-03T00:48:49.196Z,36.00
2023-03-03T00:51:29.516Z,33.90
2023-03-03T00:54:01.528Z,35.00
2023-03-03T00:56:34.711Z,37.20
2023-03-03T00:59:08.043Z,32.20
2023-03-03T01:01:39.711Z,34.40
2023-03-03T01:04:10.107Z,31.90
2023-03-03T01:06:41.894Z,30.80
2023-03-03T01:09:12.204Z,35.30
2023-03-03T01:11:43.356Z,33.80
2023-03-03T01:14:16.202Z,36.00
2023-03-03T01:16:48.524Z,36.30
2023-03-03T01:19:22.140Z,35.20
2023-03-03T01:21:54.186Z,40.50
2023-03-03T01:24:24.796Z,37.60
2023-03-03T01:26:55.357Z,31.50
2023-03-03T01:29:28.556Z,31.60
2023-03-03T01:31:58.156Z,33.40
2023-03-03T01:34:28.752Z,33.90
2023-03-03T01:36:58.928Z,34.20
2023-03-03T01:39:29.293Z,35.30
2023-03-03T01:41:59.386Z,35.70
2023-03-03T01:44:28.329Z,34.60
2023-03-03T01:47:19.213Z,36.10
2023-03-03T01:49:53.430Z,37.40
2023-03-03T01:52:35.277Z,35.90
2023-03-03T01:55:11.818Z,35.40
2023-03-03T01:57:48.133Z,34.90
2023-03-03T02:00:18.326Z,39.00
2023-03-03T02:02:48.163Z,37.50
2023-03-03T02:05:18.645Z,32.60
2023-03-03T02:07:51.434Z,34.90
2023-03-03T02:10:21.989Z,38.90
2023-03-03T02:12:56.404Z,36.40
2023-03-03T02:15:36.366Z,36.80
2023-03-03T02:18:23.829Z,31.80
2023-03-03T02:21:05.327Z,35.60
2023-03-03T02:24:15.621Z,29.50
2023-03-03T02:26:48.036Z,33.50
2023-03-03T02:29:18.455Z,32.60
2023-03-03T02:31:49.339Z,31.10
2023-03-03T02:34:19.439Z,30.40
2023-03-03T02:36:51.176Z,31.20
2023-03-03T02:39:28.059Z,29.00
2023-03-03T02:42:11.264Z,27.40
2023-03-03T02:44:47.996Z,31.50
2023-03-03T02:47:18.068Z,31.90
2023-03-03T02:49:51.310Z,37.10
2023-03-03T02:52:22.554Z,36.40
2023-03-03T02:54:53.160Z,30.40
2023-03-03T02:57:24.214Z,32.60
2023-03-03T02:59:54.971Z,34.70
2023-03-03T03:02:25.956Z,33.60
2023-03-03T03:04:55.802Z,28.80
2023-03-03T03:07:27.947Z,29.00
2023-03-03T03:09:58.309Z,34.50
2023-03-03T03:12:27.822Z,30.40
2023-03-03T03:14:59.140Z,34.30
2023-03-03T03:17:31.135Z,35.50
2023-03-03T03:20:03.774Z,35.10
2023-03-03T03:22:36.780Z,31.90
2023-03-03T03:25:07.036Z,34.10
2023-03-03T03:27:38.008Z,37.20
2023-03-03T03:30:14.619Z,34.90
2023-03-03T03:32:46.374Z,33.30
2023-03-03T03:35:19.652Z,28.10
2023-03-03T03:37:50.128Z,32.10
2023-03-03T03:40:19.840Z,31.20
2023-03-03T03:42:48.966Z,30.70
2023-03-03T03:45:19.582Z,27.00
2023-03-03T03:47:51.742Z,22.50
2023-03-03T03:50:22.498Z,27.30
2023-03-03T03:52:55.032Z,26.90
2023-03-03T03:55:25.774Z,27.60
2023-03-03T03:57:56.800Z,26.50
2023-03-03T04:00:27.582Z,24.60
2023-03-03T04:02:59.759Z,25.50
2023-03-03T04:05:30.656Z,21.10
2023-03-03T04:07:59.848Z,22.40
2023-03-03T04:10:30.366Z,26.40
2023-03-03T04:12:59.827Z,23.30
2023-03-03T04:15:29.870Z,23.70
2023-03-03T04:17:59.321Z,21.60
2023-03-03T04:20:30.451Z,22.50
2023-03-03T04:23:00.854Z,23.80
2023-03-03T04:25:36.320Z,24.60
2023-03-03T04:28:14.306Z,20.10
2023-03-03T04:30:48.332Z,23.30
2023-03-03T04:33:20.357Z,20.90
2023-03-03T04:35:51.664Z,23.40
2023-03-03T04:38:24.762Z,19.10
2023-03-03T04:40:56.581Z,20.30
2023-03-03T04:43:27.220Z,18.90
2023-03-03T04:46:01.389Z,20.10
2023-03-03T04:48:32.572Z,20.80
2023-03-03T04:51:03.451Z,21.80
2023-03-03T04:53:38.788Z,15.10
2023-03-03T04:56:09.199Z,23.40
2023-03-03T04:58:41.721Z,16.90
2023-03-03T05:01:14.969Z,16.30
2023-03-03T05:03:45.320Z,18.50
2023-03-03T05:06:14.381Z,23.20
2023-03-03T05:08:46.290Z,22.40
2023-03-03T05:11:16.544Z,16.70
2023-03-03T05:13:48.208Z,16.60
2023-03-03T05:16:19.947Z,22.80
2023-03-03T05:18:50.820Z,23.50
2023-03-03T05:21:21.271Z,21.30
2023-03-03T05:23:53.022Z,19.40
2023-03-03T05:26:23.443Z,20.90
2023-03-03T05:28:54.731Z,21.10
2023-03-03T05:31:27.623Z,19.50
2023-03-03T05:33:57.159Z,16.60
2023-03-03T05:36:29.164Z,18.90
2023-03-03T05:38:59.021Z,17.60
2023-03-03T05:41:31.139Z,17.80
2023-03-03T05:44:01.148Z,21.00
2023-03-03T05:46:33.442Z,17.80
2023-03-03T05:49:02.734Z,17.00
2023-03-03T05:51:33.637Z,17.60
2023-03-03T05:54:04.055Z,20.40
2023-03-03T05:56:35.285Z,15.70
2023-03-03T05:59:06.036Z,19.30
2023-03-03T06:01:37.611Z,16.10
2023-03-03T06:04:07.683Z,21.40
2023-03-03T06:06:40.315Z,15.90
2023-03-03T06:09:12.437Z,16.90
2023-03-03T06:11:45.180Z,16.70
2023-03-03T06:14:18.925Z,16.70
2023-03-03T06:16:50.835Z,17.00
2023-03-03T06:19:23.774Z,17.60
2023-03-03T06:21:56.064Z,9.60
2023-03-03T06:24:30.618Z,16.50
2023-03-03T06:27:02.331Z,20.40
2023-03-03T06:29:33.555Z,16.60
2023-03-03T06:32:06.260Z,16.50
2023-03-03T06:34:39.059Z,21.20
2023-03-03T06:37:08.587Z,15.40
2023-03-03T06:39:40.138Z,16.90
2023-03-03T06:42:10.749Z,18.50
2023-03-03T06:44:43.296Z,16.50
2023-03-03T06:47:13.932Z,16.90
2023-03-03T06:49:44.801Z,17.10
2023-03-03T06:52:27.606Z,18.00
2023-03-03T06:55:01.710Z,18.00
2023-03-03T06:57:34.445Z,19.50
2023-03-03T07:00:25.160Z,20.60
2023-03-03T07:03:18.443Z,16.70
2023-03-03T07:05:54.244Z,18.40
2023-03-03T07:08:32.701Z,21.00
2023-03-03T07:11:10.820Z,19.80
2023-03-03T07:13:47.080Z,19.60
2023-03-03T07:16:18.455Z,22.80
2023-03-03T07:18:55.911Z,22.90
2023-03-03T07:21:35.818Z,23.00
2023-03-03T07:24:20.487Z,15.50
2023-03-03T07:26:50.471Z,24.10
2023-03-03T07:29:27.407Z,21.20
2023-03-03T07:31:59.544Z,20.50
2023-03-03T07:34:44.724Z,24.40
2023-03-03T07:37:32.289Z,26.80
2023-03-03T07:40:23.735Z,20.90
2023-03-03T07:42:54.713Z,19.40
2023-03-03T07:45:39.246Z,15.80
2023-03-03T07:48:41.656Z,34.60
2023-03-03T07:51:28.505Z,19.40
2023-03-03T07:54:19.201Z,16.90
2023-03-03T07:56:51.563Z,18.60
2023-03-03T07:59:28.714Z,19.10
2023-03-03T08:02:02.113Z,17.20
2023-03-03T08:04:34.177Z,17.40
2023-03-03T08:07:05.934Z,19.60
2023-03-03T08:09:47.390Z,18.50
2023-03-03T08:12:42.298Z,19.50
2023-03-03T08:15:30.433Z,17.30
2023-03-03T08:18:02.689Z,20.20
2023-03-03T08:20:57.529Z,16.00
2023-03-03T08:23:28.345Z,10.90
2023-03-03T08:28:45.873Z,10.30
2023-03-03T08:31:40.199Z,10.50
2023-03-03T08:34:16.295Z,11.50
2023-03-03T08:36:49.523Z,13.00
2023-03-03T08:39:20.116Z,14.40
2023-03-03T08:41:53.741Z,13.10
2023-03-03T08:44:25.281Z,10.50
2023-03-03T08:46:59.844Z,12.70
2023-03-03T08:49:33.534Z,10.20
2023-03-03T08:52:03.156Z,11.00
2023-03-03T08:54:43.633Z,8.80
2023-03-03T08:57:15.644Z,8.90
2023-03-03T08:59:51.874Z,8.30
2023-03-03T09:02:32.671Z,9.00
2023-03-03T09:05:05.368Z,11.10
2023-03-03T09:08:25.778Z,11.90
2023-03-03T09:11:55.817Z,12.80
2023-03-03T09:22:09.771Z,16.50
2023-03-03T09:24:49.408Z,10.10
2023-03-03T09:27:23.215Z,12.70
2023-03-03T09:29:57.119Z,12.00
2023-03-03T09:32:38.240Z,10.30
2023-03-03T09:35:38.191Z,8.00
2023-03-03T09:38:38.163Z,7.80
2023-03-03T09:41:26.411Z,7.70
2023-03-03T09:44:23.183Z,9.10
2023-03-03T09:47:42.234Z,8.70
2023-03-03T09:50:37.288Z,7.80
2023-03-03T09:53:52.264Z,9.20
2023-03-03T10:00:03.873Z,6.70
2023-03-03T10:09:50.339Z,8.20
2023-03-03T10:32:13.828Z,8.80
2023-03-03T10:35:02.340Z,6.90
2023-03-03T10:38:15.094Z,9.20
2023-03-03T10:41:05.158Z,7.70
2023-03-03T10:44:32.009Z,6.60
2023-03-03T10:47:10.223Z,7.20
2023-03-03T10:52:34.315Z,9.70
2023-03-03T10:55:32.745Z,14.00
2023-03-03T10:58:31.520Z,11.30
2023-03-03T11:01:09.393Z,9.60
2023-03-03T11:04:17.765Z,7.10
2023-03-03T11:06:48.928Z,7.40
2023-03-03T11:09:38.370Z,7.30
2023-03-03T11:12:29.107Z,7.90
2023-03-03T11:15:27.949Z,8.10
2023-03-03T11:18:25.883Z,8.00
2023-03-03T11:21:34.985Z,7.10
2023-03-03T11:25:05.433Z,7.40
2023-03-03T11:28:30.565Z,7.00
2023-03-03T11:34:30.278Z,10.30
2023-03-03T11:37:09.086Z,9.40
2023-03-03T11:39:42.483Z,11.40
2023-03-03T11:42:34.599Z,8.60
2023-03-03T11:45:21.066Z,9.70
2023-03-03T11:48:07.103Z,10.10
2023-03-03T11:50:39.346Z,11.70
2023-03-03T11:53:25.212Z,11.90
2023-03-03T11:56:04.734Z,11.70
2023-03-03T11:58:46.449Z,10.20
2023-03-03T12:01:50.813Z,9.80
2023-03-03T12:04:48.076Z,10.60
2023-03-03T12:07:33.877Z,10.90
2023-03-03T12:10:49.995Z,10.60
2023-03-03T12:50:10.797Z,11.40
2023-03-03T12:52:57.666Z,11.00
2023-03-03T12:55:43.021Z,9.10
2023-03-03T12:58:33.273Z,8.70
2023-03-03T13:01:44.581Z,10.30
2023-03-03T13:04:16.336Z,12.20
2023-03-03T13:07:07.204Z,12.00
2023-03-03T13:09:54.004Z,7.60
2023-03-03T13:12:45.908Z,11.10
2023-03-03T13:15:31.509Z,11.20
2023-03-03T13:18:20.494Z,11.70
2023-03-03T13:20:59.877Z,11.00
2023-03-03T13:23:38.719Z,10.90
2023-03-03T13:26:24.828Z,10.90
2023-03-03T13:29:05.820Z,9.00
2023-03-03T13:31:42.391Z,10.20
2023-03-03T13:34:24.048Z,10.00
2023-03-03T13:37:09.023Z,12.70
2023-03-03T13:39:52.136Z,14.40
2023-03-03T13:45:07.604Z,9.30
2023-03-03T13:48:23.107Z,11.00
2023-03-03T13:51:06.510Z,10.90
2023-03-03T13:53:44.894Z,10.60
2023-03-03T13:57:00.740Z,9.60
2023-03-03T14:00:02.248Z,10.60
2023-03-03T14:03:11.585Z,11.40
2023-03-03T14:06:15.108Z,10.60
2023-03-03T14:09:08.822Z,11.30
2023-03-03T14:11:56.492Z,8.70
2023-03-03T14:14:32.763Z,10.80
2023-03-03T14:17:30.697Z,9.80
2023-03-03T14:20:46.310Z,12.00
2023-03-03T14:23:23.916Z,10.80
2023-03-03T14:25:59.274Z,9.60
2023-03-03T14:28:30.173Z,10.50
2023-03-03T14:31:17.752Z,10.70
2023-03-03T14:34:38.878Z,9.90
2023-03-03T14:37:30.347Z,10.90
2023-03-03T14:40:09.618Z,10.50
2023-03-03T14:42:51.071Z,10.30
2023-03-03T14:45:33.453Z,12.20
2023-03-03T14:48:18.925Z,10.70
2023-03-03T14:51:05.412Z,9.90
2023-03-03T14:53:43.633Z,11.50
2023-03-03T14:56:36.301Z,11.90
2023-03-03T14:59:19.761Z,9.50
2023-03-03T15:02:11.028Z,10.50
2023-03-03T15:04:41.292Z,11.10
2023-03-03T15:07:32.018Z,11.20
2023-03-03T15:10:04.117Z,9.70
2023-03-03T15:12:33.795Z,7.80
2023-03-03T15:15:07.702Z,10.00
2023-03-03T15:17:50.477Z,8.60
2023-03-03T15:21:00.838Z,10.80
2023-03-03T15:24:00.388Z,9.40
2023-03-03T15:30:52.442Z,11.10
2023-03-03T15:34:42.801Z,10.30
2023-03-03T15:37:54.404Z,11.20
2023-03-03T15:40:30.767Z,9.40
2023-03-03T15:43:40.541Z,11.10
2023-03-03T16:18:28.754Z,11.00
2023-03-03T16:21:24.279Z,9.90
2023-03-03T16:24:49.813Z,13.40
2023-03-03T16:28:06.802Z,9.50
2023-03-03T16:31:04.667Z,9.50
2023-03-03T16:34:28.870Z,10.50
2023-03-03T16:44:17.481Z,12.00
2023-03-03T17:01:15.919Z,9.70
2023-03-03T17:04:16.506Z,11.30
2023-03-03T17:07:46.389Z,11.50
2023-03-03T17:15:30.311Z,10.20
2023-03-03T17:18:30.674Z,11.30
2023-03-03T17:22:01.218Z,11.00
2023-03-03T17:25:39.338Z,12.40
2023-03-03T17:29:06.875Z,13.00
2023-03-03T17:32:49.862Z,10.20
2023-03-03T17:35:40.821Z,10.50
2023-03-03T17:38:39.235Z,11.40
2023-03-03T17:41:19.707Z,12.00
2023-03-03T17:43:52.045Z,10.60
2023-03-03T17:46:46.020Z,13.10
2023-03-03T17:49:45.783Z,13.00
2023-03-03T17:53:02.591Z,10.50
2023-03-03T17:56:12.364Z,12.90
2023-03-03T17:59:04.326Z,13.90
2023-03-03T18:01:46.707Z,13.60
2023-03-03T18:04:42.653Z,15.70
2023-03-03T18:16:36.095Z,14.60
2023-03-03T18:22:47.029Z,15.70
2023-03-03T18:25:21.518Z,15.40
2023-03-03T18:37:00.236Z,14.90
2023-03-03T18:39:52.475Z,16.90
2023-03-03T18:42:42.993Z,12.20
2023-03-03T18:45:21.066Z,13.40
2023-03-03T18:48:13.506Z,13.00
2023-03-03T18:50:51.536Z,12.60
2023-03-03T18:53:27.506Z,13.10
2023-03-03T18:56:10.660Z,13.10
2023-03-03T18:58:44.808Z,14.50
2023-03-03T19:01:36.425Z,13.40
2023-03-03T19:04:13.933Z,13.90
2023-03-03T19:06:50.039Z,11.30
2023-03-03T19:09:39.916Z,13.80
2023-03-03T19:12:14.244Z,13.30
2023-03-03T19:14:47.155Z,14.50
2023-03-03T19:17:24.447Z,15.20
2023-03-03T19:20:16.052Z,17.00
2023-03-03T19:23:13.891Z,13.70
2023-03-03T19:25:45.410Z,13.70
2023-03-03T19:28:24.597Z,14.70
2023-03-03T19:31:35.733Z,14.90
2023-03-03T19:34:17.829Z,13.20
2023-03-03T19:37:10.756Z,15.70
2023-03-03T19:40:01.532Z,14.40
2023-03-03T19:42:56.877Z,14.30
2023-03-03T19:45:54.889Z,15.90
2023-03-03T19:48:52.338Z,14.40
2023-03-03T19:51:33.444Z,17.80
2023-03-03T19:54:44.789Z,16.60
2023-03-03T19:57:44.019Z,16.60
2023-03-03T20:00:40.113Z,15.20
2023-03-03T20:03:34.624Z,16.60
2023-03-03T20:06:50.308Z,15.60
2023-03-03T20:09:33.268Z,16.40
2023-03-03T20:12:32.114Z,14.60
2023-03-03T20:15:33.309Z,13.80
2023-03-03T20:18:24.289Z,14.40
2023-03-03T20:21:35.078Z,15.60
2023-03-03T20:24:46.393Z,16.00
2023-03-03T20:27:35.503Z,14.50
2023-03-03T20:30:23.749Z,16.10
2023-03-03T20:33:31.672Z,15.30
2023-03-03T20:36:39.204Z,16.90
2023-03-03T20:39:17.918Z,13.10
2023-03-03T20:42:17.273Z,14.60
2023-03-03T20:45:10.103Z,14.60
2023-03-03T20:48:07.366Z,15.00
2023-03-03T20:50:57.683Z,16.10
2023-03-03T20:54:03.270Z,11.90
2023-03-03T20:56:58.227Z,15.10
2023-03-03T21:00:05.071Z,15.20
2023-03-03T21:02:53.339Z,14.60
2023-03-03T21:05:29.055Z,17.30
2023-03-03T21:08:08.281Z,16.30
2023-03-03T21:10:42.701Z,15.70
2023-03-03T21:13:41.758Z,14.70
2023-03-03T21:16:25.802Z,15.70
2023-03-03T21:19:07.931Z,13.40
2023-03-03T21:21:45.674Z,13.90
2023-03-03T21:24:19.606Z,18.70
2023-03-03T21:26:58.657Z,14.30
2023-03-03T21:29:30.337Z,14.80
2023-03-03T21:32:05.773Z,15.20
2023-03-03T21:37:08.506Z,14.80
2023-03-03T21:39:42.128Z,15.70
2023-03-03T21:42:16.466Z,17.00
2023-03-03T21:44:53.178Z,14.00
2023-03-03T21:47:28.955Z,17.20
2023-03-03T21:50:00.587Z,16.10
2023-03-03T21:52:33.022Z,17.90
2023-03-03T21:55:03.120Z,14.10
2023-03-03T21:57:35.120Z,15.70
2023-03-03T22:00:07.292Z,17.20
2023-03-03T22:02:36.335Z,20.50
2023-03-03T22:05:07.321Z,16.10
2023-03-03T22:07:39.356Z,15.60
2023-03-03T22:10:09.588Z,16.30
2023-03-03T22:12:38.488Z,15.50
2023-03-03T22:15:08.555Z,17.70
2023-03-03T22:17:39.733Z,18.30
2023-03-03T22:20:10.581Z,17.80
2023-03-03T22:22:41.531Z,18.40
2023-03-03T22:25:11.589Z,18.10
2023-03-03T22:27:40.274Z,18.70
2023-03-03T22:30:14.685Z,15.70
2023-03-03T22:32:46.194Z,14.30
2023-03-03T22:35:15.193Z,15.90
2023-03-03T22:37:46.620Z,15.00
2023-03-03T22:40:16.164Z,16.80
2023-03-03T22:42:46.283Z,17.40
2023-03-03T22:45:17.231Z,16.30
2023-03-03T22:47:48.273Z,17.70
2023-03-03T22:50:18.109Z,16.10
2023-03-03T22:52:47.715Z,14.40
2023-03-03T22:55:18.032Z,19.10
2023-03-03T22:57:47.898Z,14.30
2023-03-03T23:00:21.354Z,15.30
2023-03-03T23:02:49.797Z,13.30
2023-03-03T23:05:22.577Z,16.40
2023-03-03T23:07:52.054Z,15.60
2023-03-03T23:10:21.268Z,15.30
2023-03-03T23:12:49.416Z,17.30
2023-03-03T23:15:18.347Z,16.40
2023-03-03T23:17:48.448Z,15.80
2023-03-03T23:20:21.186Z,15.20
2023-03-03T23:22:51.379Z,14.60
2023-03-03T23:25:22.772Z,14.90
2023-03-03T23:27:53.048Z,12.60
2023-03-03T23:30:50.548Z,14.80
2023-03-03T23:33:21.993Z,14.00
2023-03-03T23:35:53.199Z,14.60
2023-03-03T23:38:23.570Z,13.90
2023-03-03T23:40:55.796Z,14.10
2023-03-03T23:43:26.225Z,14.70
2023-03-03T23:45:55.766Z,15.90
2023-03-03T23:48:25.552Z,16.00
2023-03-03T23:50:54.278Z,14.90
2023-03-03T23:53:23.503Z,17.90
2023-03-03T23:55:54.247Z,17.80
2023-03-03T23:58:24.542Z,15.40
